Aline, Oklahoma
Current Conditions -  °F | °C
As of 8:50 PM on Tuesday 25 Nov 2014 (Local Time) from KAVK Reporting Station
Scattered Clouds Scattered Clouds  
Wind Chill:   Ceiling: Unl
Heat Index:   Visibility: 10mi
Dew Point: -3°   Wind: 14mph
Humidity: 57%   Direction: 180°S
Pressure: 29.98"   Gusts: NA
Location:  36.51°N, 98.45°W
Report Text: KAVK 260250Z AUTO 18012KT 10SM SCT044 05/M03 A2998 RMK AO2
Loading
Personal Weather Stations






























Interactive Weather Map New forecast layout! Learn more

10-Day Weather Forecast

Advertisements
Track Severe Weather on mobile